createdAt,value
2023-06-07T00:01:46.915Z,68.42
2023-06-07T00:04:15.343Z,68.50
2023-06-07T00:06:43.826Z,68.60
2023-06-07T00:09:12.408Z,68.76
2023-06-07T00:11:41.000Z,68.79
2023-06-07T00:14:09.108Z,68.95
2023-06-07T00:16:37.133Z,69.16
2023-06-07T00:19:05.315Z,69.44
2023-06-07T00:21:33.788Z,69.48
2023-06-07T00:24:02.016Z,69.69
2023-06-07T00:26:30.339Z,69.79
2023-06-07T00:28:58.924Z,70.04
2023-06-07T00:31:27.026Z,70.23
2023-06-07T00:33:55.217Z,70.21
2023-06-07T00:36:23.349Z,70.40
2023-06-07T00:38:52.030Z,70.72
2023-06-07T00:41:20.240Z,70.82
2023-06-07T00:43:49.208Z,70.99
2023-06-07T00:46:22.086Z,71.27
2023-06-07T00:48:52.867Z,71.36
2023-06-07T00:51:21.524Z,71.63
2023-06-07T00:53:52.304Z,71.68
2023-06-07T00:56:21.640Z,71.81
2023-06-07T00:58:49.725Z,71.81
2023-06-07T01:01:19.351Z,71.92
2023-06-07T01:03:48.177Z,72.18
2023-06-07T01:06:16.593Z,72.29
2023-06-07T01:08:45.372Z,72.37
2023-06-07T01:11:14.714Z,72.46
2023-06-07T01:13:43.588Z,72.59
2023-06-07T01:16:12.674Z,72.76
2023-06-07T01:18:43.894Z,72.75
2023-06-07T01:21:15.168Z,72.97
2023-06-07T01:23:43.554Z,73.08
2023-06-07T01:26:12.434Z,73.16
2023-06-07T01:28:43.395Z,73.22
2023-06-07T01:31:13.291Z,73.05
2023-06-07T01:33:43.704Z,73.28
2023-06-07T01:36:14.623Z,73.54
2023-06-07T01:38:48.038Z,73.63
2023-06-07T01:41:17.439Z,73.54
2023-06-07T01:43:48.825Z,73.91
2023-06-07T01:46:18.014Z,73.81
2023-06-07T01:48:46.258Z,73.92
2023-06-07T01:51:14.347Z,74.13
2023-06-07T01:53:42.916Z,74.05
2023-06-07T01:56:34.763Z,74.16
2023-06-07T01:59:17.272Z,74.26
2023-06-07T02:01:58.887Z,74.19
2023-06-07T02:04:29.913Z,74.14
2023-06-07T02:07:02.941Z,74.29
2023-06-07T02:09:36.434Z,74.47
2023-06-07T02:12:07.496Z,74.70
2023-06-07T02:14:37.544Z,74.81
2023-06-07T02:17:09.780Z,74.81
2023-06-07T02:19:39.666Z,74.86
2023-06-07T02:22:07.987Z,74.93
2023-06-07T02:24:36.151Z,75.24
2023-06-07T02:27:04.977Z,75.04
2023-06-07T02:29:33.055Z,75.27
2023-06-07T02:32:02.222Z,75.37
2023-06-07T02:34:33.897Z,75.36
2023-06-07T02:37:03.860Z,75.69
2023-06-07T02:39:31.967Z,75.45
2023-06-07T02:42:00.167Z,75.74
2023-06-07T02:44:29.452Z,75.49
2023-06-07T02:46:59.668Z,75.59
2023-06-07T02:49:28.056Z,75.58
2023-06-07T02:51:56.505Z,75.73
2023-06-07T02:54:24.685Z,75.70
2023-06-07T02:56:53.166Z,75.53
2023-06-07T02:59:21.374Z,75.62
2023-06-07T03:01:49.539Z,75.76
2023-06-07T03:04:19.930Z,75.92
2023-06-07T03:06:49.949Z,75.65
2023-06-07T03:09:26.523Z,75.80
2023-06-07T03:11:55.222Z,75.66
2023-06-07T03:14:24.822Z,75.85
2023-06-07T03:16:54.345Z,75.70
2023-06-07T03:19:22.921Z,75.76
2023-06-07T03:21:54.962Z,75.95
2023-06-07T03:24:24.795Z,75.98
2023-06-07T03:26:53.898Z,76.04
2023-06-07T03:29:22.266Z,75.84
2023-06-07T03:31:50.354Z,76.05
2023-06-07T03:34:20.042Z,76.11
2023-06-07T03:36:49.058Z,76.13
2023-06-07T03:39:18.536Z,76.25
2023-06-07T03:41:46.819Z,76.32
2023-06-07T03:44:18.579Z,76.26
2023-06-07T03:46:48.007Z,76.23
2023-06-07T03:49:16.541Z,76.36
2023-06-07T03:51:45.542Z,76.44
2023-06-07T03:54:15.089Z,76.49
2023-06-07T03:56:44.067Z,76.41
2023-06-07T03:59:13.751Z,76.40
2023-06-07T04:01:43.413Z,76.26
2023-06-07T04:04:12.374Z,76.54
2023-06-07T04:06:41.162Z,76.49
2023-06-07T04:09:09.745Z,76.44
2023-06-07T04:11:39.942Z,76.38
2023-06-07T04:14:08.013Z,76.47
2023-06-07T04:16:36.816Z,76.31
2023-06-07T04:19:05.187Z,76.89
2023-06-07T04:21:36.324Z,78.26
2023-06-07T04:24:06.023Z,78.55
2023-06-07T04:26:35.233Z,76.22
2023-06-07T04:29:04.134Z,72.55
2023-06-07T04:31:35.940Z,68.60
2023-06-07T04:34:07.174Z,63.86
2023-06-07T04:36:40.629Z,59.31
2023-06-07T04:39:20.071Z,56.86
2023-06-07T04:41:50.564Z,56.11
2023-06-07T04:44:29.213Z,56.46
2023-06-07T04:47:09.030Z,57.13
2023-06-07T04:49:40.241Z,58.49
2023-06-07T04:52:09.440Z,58.95
2023-06-07T04:54:38.282Z,58.06
2023-06-07T04:57:12.422Z,57.85
2023-06-07T04:59:46.096Z,58.22
2023-06-07T05:02:20.111Z,58.75
2023-06-07T05:04:48.806Z,58.60
2023-06-07T05:07:17.398Z,58.83
2023-06-07T05:09:48.679Z,59.78
2023-06-07T05:12:19.128Z,58.13
2023-06-07T05:14:48.039Z,57.94
2023-06-07T05:17:20.793Z,58.38
2023-06-07T05:19:53.173Z,58.56
2023-06-07T05:22:21.927Z,58.10
2023-06-07T05:24:51.323Z,58.74
2023-06-07T05:27:19.439Z,58.71
2023-06-07T05:29:47.528Z,58.31
2023-06-07T05:32:15.699Z,57.14
2023-06-07T05:34:46.805Z,58.29
2023-06-07T05:37:15.942Z,58.28
2023-06-07T05:39:47.208Z,57.48
2023-06-07T05:42:15.460Z,56.65
2023-06-07T05:44:49.657Z,56.68
2023-06-07T05:47:19.120Z,57.48
2023-06-07T05:49:47.794Z,57.19
2023-06-07T05:52:16.986Z,56.66
2023-06-07T05:54:52.908Z,56.61
2023-06-07T05:57:21.402Z,56.71
2023-06-07T05:59:49.475Z,56.51
2023-06-07T06:02:18.143Z,56.41
2023-06-07T06:04:47.430Z,56.62
2023-06-07T06:07:16.997Z,56.54
2023-06-07T06:09:45.354Z,56.61
2023-06-07T06:12:13.823Z,56.54
2023-06-07T06:14:41.997Z,56.16
2023-06-07T06:17:10.327Z,56.28
2023-06-07T06:19:38.450Z,56.36
2023-06-07T06:22:06.922Z,56.49
2023-06-07T06:24:34.892Z,56.30
2023-06-07T06:27:02.999Z,56.45
2023-06-07T06:29:31.974Z,56.00
2023-06-07T06:32:01.900Z,56.06
2023-06-07T06:34:31.353Z,55.81
2023-06-07T06:37:01.287Z,55.76
2023-06-07T06:39:29.564Z,55.75
2023-06-07T06:41:57.640Z,55.98
2023-06-07T06:44:35.752Z,55.56
2023-06-07T06:47:03.934Z,55.14
2023-06-07T06:49:31.915Z,55.07
2023-06-07T06:52:00.036Z,55.21
2023-06-07T06:54:28.032Z,54.92
2023-06-07T06:56:56.157Z,55.30
2023-06-07T06:59:24.044Z,55.01
2023-06-07T07:01:53.462Z,54.28
2023-06-07T07:04:21.589Z,54.05
2023-06-07T07:06:49.561Z,53.74
2023-06-07T07:09:17.624Z,54.35
2023-06-07T07:11:45.658Z,54.30
2023-06-07T07:14:13.622Z,53.43
2023-06-07T07:16:41.842Z,53.04
2023-06-07T07:19:09.890Z,52.60
2023-06-07T07:21:38.839Z,52.49
2023-06-07T07:24:07.569Z,52.37
2023-06-07T07:26:36.800Z,51.98
2023-06-07T07:29:04.798Z,52.02
2023-06-07T07:31:34.795Z,52.62
2023-06-07T07:34:04.292Z,52.67
2023-06-07T07:36:35.252Z,52.31
2023-06-07T07:39:06.537Z,52.01
2023-06-07T07:41:35.532Z,51.94
2023-06-07T07:44:03.899Z,51.80
2023-06-07T07:46:31.856Z,51.73
2023-06-07T07:48:59.871Z,51.14
2023-06-07T07:51:27.785Z,51.20
2023-06-07T07:53:55.735Z,51.25
2023-06-07T07:56:24.109Z,50.70
2023-06-07T07:58:52.148Z,50.21
2023-06-07T08:01:20.719Z,50.01
2023-06-07T08:03:48.959Z,49.63
2023-06-07T08:06:18.205Z,49.57
2023-06-07T08:08:48.019Z,48.98
2023-06-07T08:11:16.292Z,48.75
2023-06-07T08:13:44.248Z,48.92
2023-06-07T08:16:12.464Z,48.45
2023-06-07T08:18:40.516Z,47.75
2023-06-07T08:21:08.537Z,47.59
2023-06-07T08:23:36.791Z,47.34
2023-06-07T08:26:04.973Z,47.41
2023-06-07T08:28:32.867Z,47.15
2023-06-07T08:31:03.062Z,47.06
2023-06-07T08:33:31.370Z,46.28
2023-06-07T08:35:59.252Z,45.96
2023-06-07T08:38:28.371Z,45.34
2023-06-07T08:40:57.578Z,45.13
2023-06-07T08:43:26.581Z,44.59
2023-06-07T08:45:57.225Z,44.41
2023-06-07T08:48:26.386Z,44.40
2023-06-07T08:50:56.364Z,44.86
2023-06-07T08:53:56.828Z,44.53
2023-06-07T08:56:26.485Z,43.71
2023-06-07T08:58:55.199Z,44.33
2023-06-07T09:01:24.732Z,44.34
2023-06-07T09:03:53.313Z,43.56
2023-06-07T09:06:22.814Z,42.79
2023-06-07T09:08:51.119Z,42.77
2023-06-07T09:11:19.158Z,43.39
2023-06-07T09:13:47.740Z,43.31
2023-06-07T09:16:16.548Z,43.02
2023-06-07T09:18:55.162Z,42.81
2023-06-07T09:21:30.181Z,43.30
2023-06-07T09:24:01.926Z,43.05
2023-06-07T09:26:38.399Z,42.66
2023-06-07T09:29:11.048Z,42.20
2023-06-07T09:31:39.333Z,41.83
2023-06-07T09:34:21.788Z,42.39
2023-06-07T09:37:00.038Z,41.96
2023-06-07T09:39:32.840Z,42.31
2023-06-07T09:42:00.756Z,42.31
2023-06-07T09:44:30.329Z,42.15
2023-06-07T09:47:03.172Z,42.44
2023-06-07T09:49:36.421Z,41.87
2023-06-07T09:52:12.635Z,41.80
2023-06-07T09:54:45.886Z,42.10
2023-06-07T09:57:26.188Z,41.71
2023-06-07T09:59:59.674Z,41.04
2023-06-07T10:02:30.285Z,41.27
2023-06-07T10:05:00.808Z,41.59
2023-06-07T10:07:43.308Z,41.92
2023-06-07T10:10:13.087Z,42.04
2023-06-07T10:12:43.020Z,42.00
2023-06-07T10:15:13.664Z,41.93
2023-06-07T10:17:50.154Z,41.56
2023-06-07T10:20:35.095Z,40.91
2023-06-07T10:23:15.209Z,41.17
2023-06-07T10:25:54.367Z,41.29
2023-06-07T10:28:50.203Z,41.26
2023-06-07T10:31:18.980Z,41.85
2023-06-07T10:33:52.199Z,41.82
2023-06-07T10:36:24.965Z,40.75
2023-06-07T10:38:55.536Z,40.08
2023-06-07T10:41:24.079Z,40.28
2023-06-07T10:43:52.324Z,40.33
2023-06-07T10:46:24.498Z,40.97
2023-06-07T10:48:55.202Z,40.52
2023-06-07T10:51:46.232Z,40.68
2023-06-07T10:54:29.461Z,39.59
2023-06-07T10:56:57.914Z,39.40
2023-06-07T10:59:27.408Z,39.42
2023-06-07T11:02:25.577Z,39.18
2023-06-07T11:04:54.824Z,39.35
2023-06-07T11:07:32.099Z,39.18
2023-06-07T11:10:06.240Z,38.86
2023-06-07T11:12:42.415Z,39.18
2023-06-07T11:15:21.644Z,39.46
2023-06-07T11:18:13.576Z,39.58
2023-06-07T11:20:46.015Z,39.37
2023-06-07T11:23:24.239Z,39.06
2023-06-07T11:26:09.795Z,39.02
2023-06-07T11:28:42.551Z,39.29
2023-06-07T11:31:12.601Z,39.38
2023-06-07T11:33:44.515Z,39.45
2023-06-07T11:36:13.237Z,39.81
2023-06-07T11:38:43.251Z,39.75
2023-06-07T11:41:12.066Z,39.72
2023-06-07T11:43:41.243Z,38.93
2023-06-07T11:46:14.656Z,39.16
2023-06-07T11:48:44.710Z,38.30
2023-06-07T11:51:13.248Z,38.07
2023-06-07T11:53:42.483Z,38.37
2023-06-07T11:56:10.857Z,37.77
2023-06-07T11:58:38.800Z,37.21
2023-06-07T12:01:07.849Z,36.72
2023-06-07T12:03:36.173Z,36.54
2023-06-07T12:06:05.828Z,35.90
2023-06-07T12:08:35.671Z,35.59
2023-06-07T12:11:03.741Z,35.47
2023-06-07T12:13:41.851Z,35.44
2023-06-07T12:16:10.131Z,35.83
2023-06-07T12:18:39.740Z,35.83
2023-06-07T12:21:10.434Z,35.37
2023-06-07T12:23:49.168Z,34.94
2023-06-07T12:26:20.567Z,35.22
2023-06-07T12:28:50.356Z,34.50
2023-06-07T12:31:26.850Z,34.67
2023-06-07T12:33:58.481Z,34.39
2023-06-07T12:36:31.895Z,33.41
2023-06-07T12:39:11.227Z,33.87
2023-06-07T12:41:40.099Z,33.88
2023-06-07T12:44:10.922Z,33.55
2023-06-07T12:46:41.495Z,34.09
2023-06-07T12:49:09.724Z,33.97
2023-06-07T12:51:39.016Z,34.15
2023-06-07T12:54:07.102Z,34.25
2023-06-07T12:56:35.869Z,33.74
2023-06-07T12:59:04.425Z,33.40
2023-06-07T13:01:33.193Z,33.61
2023-06-07T13:04:01.859Z,33.56
2023-06-07T13:06:30.197Z,33.27
2023-06-07T13:09:07.871Z,32.60
2023-06-07T13:11:38.285Z,31.91
2023-06-07T13:18:59.887Z,32.37
2023-06-07T13:21:31.929Z,32.30
2023-06-07T13:33:19.938Z,33.39
2023-06-07T13:40:23.946Z,34.07
2023-06-07T13:47:31.164Z,34.33
2023-06-07T13:50:04.172Z,34.67
2023-06-07T13:52:35.969Z,34.06
2023-06-07T13:55:07.963Z,34.61
2023-06-07T13:57:40.036Z,34.69
2023-06-07T14:00:10.936Z,34.60
2023-06-07T14:02:43.282Z,35.19
2023-06-07T14:05:15.363Z,36.06
2023-06-07T14:07:47.011Z,36.65
2023-06-07T14:10:18.991Z,37.18
2023-06-07T14:12:50.039Z,36.97
2023-06-07T14:22:52.573Z,38.49
2023-06-07T14:25:20.752Z,38.65
2023-06-07T14:27:49.007Z,38.69
2023-06-07T14:30:17.780Z,39.45
2023-06-07T14:32:45.939Z,39.28
2023-06-07T14:35:14.142Z,39.62
2023-06-07T14:37:42.410Z,39.51
2023-06-07T14:40:10.995Z,39.69
2023-06-07T14:42:39.472Z,39.77
2023-06-07T14:45:08.572Z,39.29
2023-06-07T14:47:36.987Z,39.42
2023-06-07T14:50:05.735Z,39.61
2023-06-07T14:52:33.819Z,39.56
2023-06-07T14:55:02.083Z,39.66
2023-06-07T14:57:30.263Z,39.97
2023-06-07T14:59:58.338Z,40.36
2023-06-07T15:02:26.452Z,39.90
2023-06-07T15:04:54.778Z,40.07
2023-06-07T15:07:23.082Z,39.83
2023-06-07T15:17:27.015Z,39.26
2023-06-07T15:19:55.295Z,39.26
2023-06-07T15:22:23.870Z,39.31
2023-06-07T15:24:52.086Z,39.39
2023-06-07T15:27:20.650Z,40.03
2023-06-07T15:29:48.804Z,40.37
2023-06-07T15:32:16.909Z,40.62
2023-06-07T15:34:48.975Z,41.20
2023-06-07T15:37:17.319Z,40.92
2023-06-07T15:39:47.354Z,40.57
2023-06-07T15:42:15.614Z,40.30
2023-06-07T15:44:46.581Z,40.32
2023-06-07T15:47:17.276Z,40.03
2023-06-07T15:49:45.565Z,40.35
2023-06-07T15:52:13.570Z,40.56
2023-06-07T15:54:41.811Z,40.56
2023-06-07T15:57:10.384Z,40.59
2023-06-07T15:59:38.369Z,40.58
2023-06-07T16:02:07.697Z,40.57
2023-06-07T16:04:35.903Z,40.67
2023-06-07T16:07:05.432Z,41.12
2023-06-07T16:09:33.639Z,40.58
2023-06-07T16:12:01.687Z,40.39
2023-06-07T16:14:29.958Z,40.59
2023-06-07T16:16:58.083Z,40.90
2023-06-07T16:19:27.224Z,41.73
2023-06-07T16:21:55.265Z,42.07
2023-06-07T16:24:23.568Z,41.26
2023-06-07T16:26:52.167Z,40.88
2023-06-07T16:29:20.223Z,40.53
2023-06-07T16:31:48.337Z,40.40
2023-06-07T16:34:16.527Z,40.65
2023-06-07T16:36:44.673Z,40.72
2023-06-07T16:39:12.922Z,41.06
2023-06-07T16:41:41.907Z,41.87
2023-06-07T16:44:11.518Z,42.68
2023-06-07T16:46:40.370Z,43.21
2023-06-07T16:49:08.455Z,43.64
2023-06-07T16:51:36.704Z,43.87
2023-06-07T16:54:04.861Z,43.78
2023-06-07T16:56:33.003Z,44.13
2023-06-07T16:59:01.083Z,44.24
2023-06-07T17:01:31.762Z,44.49
2023-06-07T17:03:59.976Z,44.61
2023-06-07T17:06:28.362Z,44.80
2023-06-07T17:08:56.634Z,44.51
2023-06-07T17:11:26.459Z,44.86
2023-06-07T17:13:54.833Z,45.00
2023-06-07T17:16:23.068Z,45.10
2023-06-07T17:18:51.278Z,45.21
2023-06-07T17:21:19.959Z,45.70
2023-06-07T17:23:48.408Z,45.97
2023-06-07T17:26:16.648Z,46.51
2023-06-07T17:28:45.099Z,46.78
2023-06-07T17:31:13.349Z,46.88
2023-06-07T17:41:16.641Z,47.68
2023-06-07T17:43:45.274Z,47.74
2023-06-07T17:46:13.545Z,47.95
2023-06-07T17:48:41.984Z,48.33
2023-06-07T17:51:10.056Z,48.54
2023-06-07T17:53:39.439Z,48.82
2023-06-07T17:56:09.966Z,49.00
2023-06-07T17:58:38.032Z,49.36
2023-06-07T18:01:07.152Z,49.61
2023-06-07T18:03:37.437Z,49.86
2023-06-07T18:06:05.870Z,50.23
2023-06-07T18:08:35.773Z,50.53
2023-06-07T18:11:03.928Z,50.89
2023-06-07T18:13:31.930Z,51.20
2023-06-07T18:15:59.983Z,51.49
2023-06-07T18:18:28.253Z,51.85
2023-06-07T18:20:56.610Z,52.03
2023-06-07T18:23:24.737Z,52.19
2023-06-07T18:25:53.093Z,52.48
2023-06-07T18:28:21.676Z,52.71
2023-06-07T18:30:49.946Z,52.82
2023-06-07T18:33:18.305Z,53.09
2023-06-07T18:35:46.506Z,53.51
2023-06-07T18:38:14.668Z,53.79
2023-06-07T18:40:42.821Z,54.04
2023-06-07T18:43:12.540Z,54.36
2023-06-07T18:45:40.815Z,54.50
2023-06-07T18:48:09.079Z,54.57
2023-06-07T18:50:38.193Z,54.71
2023-06-07T18:53:06.453Z,54.86
2023-06-07T18:55:34.627Z,55.04
2023-06-07T18:58:02.924Z,55.39
2023-06-07T19:00:31.386Z,55.67
2023-06-07T19:02:59.751Z,56.07
2023-06-07T19:05:28.764Z,56.13
2023-06-07T19:07:56.844Z,56.25
2023-06-07T19:10:24.939Z,56.53
2023-06-07T19:12:53.078Z,57.01
2023-06-07T19:15:21.198Z,57.24
2023-06-07T19:17:49.382Z,57.38
2023-06-07T19:20:19.128Z,57.48
2023-06-07T19:22:47.512Z,57.63
2023-06-07T19:25:15.882Z,57.78
2023-06-07T19:27:44.160Z,58.08
2023-06-07T19:30:13.750Z,58.28
2023-06-07T19:32:42.350Z,58.58
2023-06-07T19:35:11.093Z,58.87
2023-06-07T19:37:40.141Z,59.20
2023-06-07T19:40:10.255Z,59.46
2023-06-07T19:42:39.141Z,59.83
2023-06-07T19:45:09.015Z,59.97
2023-06-07T19:47:39.892Z,60.33
2023-06-07T19:50:11.111Z,60.50
2023-06-07T19:52:41.368Z,60.81
2023-06-07T19:55:09.836Z,61.11
2023-06-07T19:57:38.157Z,61.43
2023-06-07T20:00:08.823Z,61.59
2023-06-07T20:02:41.758Z,61.89
2023-06-07T20:05:11.496Z,62.06
2023-06-07T20:07:40.140Z,62.26
2023-06-07T20:10:09.353Z,62.54
2023-06-07T20:12:37.982Z,62.66
2023-06-07T20:15:06.910Z,62.86
2023-06-07T20:17:35.846Z,63.05
2023-06-07T20:20:04.958Z,63.18
2023-06-07T20:22:34.702Z,63.24
2023-06-07T20:25:03.948Z,63.47
2023-06-07T20:27:32.588Z,63.74
2023-06-07T20:30:01.603Z,63.92
2023-06-07T20:32:30.044Z,64.13
2023-06-07T20:35:00.542Z,64.38
2023-06-07T20:37:28.960Z,64.62
2023-06-07T20:39:57.089Z,64.93
2023-06-07T20:42:25.281Z,65.09
2023-06-07T20:44:54.248Z,65.24
2023-06-07T20:47:22.710Z,65.46
2023-06-07T20:49:52.543Z,65.80
2023-06-07T20:52:21.390Z,65.95
2023-06-07T20:54:49.663Z,66.29
2023-06-07T20:57:18.139Z,66.46
2023-06-07T20:59:47.262Z,66.73
2023-06-07T21:02:15.719Z,66.88
2023-06-07T21:04:44.038Z,67.11
2023-06-07T21:07:12.905Z,67.36
2023-06-07T21:09:41.470Z,67.53
2023-06-07T21:12:10.028Z,67.72
2023-06-07T21:14:38.400Z,68.05
2023-06-07T21:17:07.760Z,68.29
2023-06-07T21:19:35.937Z,68.60
2023-06-07T21:22:05.414Z,68.77
2023-06-07T21:24:33.589Z,69.04
2023-06-07T21:27:01.869Z,69.31
2023-06-07T21:29:30.161Z,69.48
2023-06-07T21:31:58.609Z,69.69
2023-06-07T21:34:27.342Z,69.89
2023-06-07T21:36:55.882Z,70.19
2023-06-07T21:39:24.164Z,70.43
2023-06-07T21:41:53.046Z,70.60
2023-06-07T21:44:24.478Z,70.93
2023-06-07T21:46:53.596Z,71.16
2023-06-07T21:49:21.707Z,71.37
2023-06-07T21:51:49.841Z,71.55
2023-06-07T21:54:18.017Z,71.77
2023-06-07T21:56:46.391Z,72.02
2023-06-07T21:59:14.694Z,72.22
2023-06-07T22:01:43.032Z,72.29
2023-06-07T22:04:11.551Z,72.41
2023-06-07T22:06:39.910Z,72.61
2023-06-07T22:09:08.300Z,72.75
2023-06-07T22:11:42.245Z,72.98
2023-06-07T22:14:14.661Z,73.15
2023-06-07T22:16:46.097Z,73.36
2023-06-07T22:19:16.030Z,73.46
2023-06-07T22:21:44.102Z,73.58
2023-06-07T22:24:12.568Z,73.86
2023-06-07T22:26:40.792Z,73.98
2023-06-07T22:29:09.456Z,74.10
2023-06-07T22:31:38.077Z,74.29
2023-06-07T22:34:07.194Z,74.44
2023-06-07T22:36:41.781Z,74.56
2023-06-07T22:39:13.158Z,74.69
2023-06-07T22:41:44.857Z,75.05
2023-06-07T22:44:14.063Z,75.07
2023-06-07T22:46:42.285Z,75.25
2023-06-07T22:49:12.880Z,75.25
2023-06-07T22:51:42.434Z,75.48
2023-06-07T22:54:11.067Z,75.56
2023-06-07T22:56:39.051Z,75.79
2023-06-07T23:06:49.318Z,76.25
2023-06-07T23:09:18.629Z,76.30
2023-06-07T23:11:50.343Z,76.60
2023-06-07T23:14:18.561Z,76.75
2023-06-07T23:16:47.075Z,76.74
2023-06-07T23:19:16.779Z,77.03
2023-06-07T23:21:48.488Z,77.16
2023-06-07T23:24:22.830Z,77.40
2023-06-07T23:26:53.456Z,77.53
2023-06-07T23:29:22.363Z,77.76
2023-06-07T23:31:50.740Z,77.73
2023-06-07T23:34:18.911Z,77.86
2023-06-07T23:36:46.976Z,78.03
2023-06-07T23:39:16.094Z,78.10
2023-06-07T23:41:44.262Z,78.20
2023-06-07T23:44:27.334Z,78.58
2023-06-07T23:46:55.980Z,78.62
2023-06-07T23:49:32.664Z,78.73
2023-06-07T23:52:01.914Z,78.82
2023-06-07T23:54:30.191Z,78.89
2023-06-07T23:56:58.285Z,78.98
2023-06-07T23:59:26.940Z,78.96
